createdAt,value
2019-01-05T00:01:08.314Z,17.10
2019-01-05T00:03:48.343Z,17.10
2019-01-05T00:06:33.074Z,17.10
2019-01-05T00:09:00.922Z,17.20
2019-01-05T00:11:31.694Z,17.10
2019-01-05T00:14:16.427Z,17.20
2019-01-05T00:16:56.518Z,17.20
2019-01-05T00:19:39.467Z,17.20
2019-01-05T00:22:07.323Z,17.20
2019-01-05T00:24:40.986Z,17.20
2019-01-05T00:27:11.722Z,17.20
2019-01-05T00:29:39.574Z,17.20
2019-01-05T00:32:07.426Z,17.20
2019-01-05T00:34:47.671Z,17.20
2019-01-05T00:37:24.845Z,17.20
2019-01-05T00:39:52.710Z,17.20
2019-01-05T00:42:36.075Z,17.20
2019-01-05T00:45:16.244Z,17.20
2019-01-05T00:48:00.870Z,17.20
2019-01-05T00:50:28.731Z,17.20
2019-01-05T00:53:13.398Z,17.20
2019-01-05T00:55:44.317Z,17.20
2019-01-05T00:58:15.177Z,17.20
2019-01-05T01:00:52.308Z,17.20
2019-01-05T01:03:23.401Z,17.10
2019-01-05T01:06:06.375Z,17.10
2019-01-05T01:08:50.893Z,17.10
2019-01-05T01:11:24.713Z,17.10
2019-01-05T01:13:58.419Z,17.10
2019-01-05T01:16:26.379Z,17.10
2019-01-05T01:18:56.992Z,17.10
2019-01-05T01:21:36.924Z,17.10
2019-01-05T01:24:04.895Z,17.10
2019-01-05T01:26:35.997Z,17.10
2019-01-05T01:29:20.830Z,17.10
2019-01-05T01:31:48.693Z,17.10
2019-01-05T01:34:28.861Z,17.10
2019-01-05T01:37:05.757Z,17.10
2019-01-05T01:39:50.168Z,17.10
2019-01-05T01:42:36.417Z,17.10
2019-01-05T01:45:10.320Z,17.10
2019-01-05T01:47:54.933Z,17.10
2019-01-05T01:50:22.795Z,17.10
2019-01-05T01:52:53.709Z,17.10
2019-01-05T01:55:21.579Z,17.10
2019-01-05T01:58:01.621Z,17.10
2019-01-05T02:00:35.293Z,17.10
2019-01-05T02:03:19.716Z,17.10
2019-01-05T02:06:03.576Z,17.10
2019-01-05T02:08:49.622Z,17.10
2019-01-05T02:11:32.922Z,17.20
2019-01-05T02:14:15.830Z,17.10
2019-01-05T02:16:55.922Z,17.20
2019-01-05T02:19:32.702Z,17.20
2019-01-05T02:22:06.713Z,17.20
2019-01-05T02:24:34.591Z,17.20
2019-01-05T02:27:19.354Z,17.20
2019-01-05T02:30:05.816Z,17.20
2019-01-05T02:32:50.299Z,17.20
2019-01-05T02:35:27.233Z,17.10
2019-01-05T02:38:03.909Z,17.20
2019-01-05T02:40:34.544Z,17.20
2019-01-05T02:43:05.336Z,17.20
2019-01-05T02:45:33.221Z,17.20
2019-01-05T02:48:19.369Z,17.20
2019-01-05T02:51:03.811Z,17.20
2019-01-05T02:53:48.557Z,17.20
2019-01-05T02:56:29.495Z,17.20
2019-01-05T02:58:57.346Z,17.10
2019-01-05T03:01:37.275Z,17.10
2019-01-05T03:04:17.432Z,17.10
2019-01-05T03:07:00.389Z,17.10
2019-01-05T03:09:45.186Z,17.10
2019-01-05T03:12:30.148Z,17.10
2019-01-05T03:14:58.014Z,17.10
2019-01-05T03:17:43.076Z,17.10
2019-01-05T03:20:17.040Z,17.10
2019-01-05T03:22:53.833Z,17.10
2019-01-05T03:25:21.703Z,17.10
2019-01-05T03:28:06.323Z,17.10
2019-01-05T03:30:34.183Z,17.10
2019-01-05T03:33:11.323Z,17.10
2019-01-05T03:35:56.081Z,17.10
2019-01-05T03:38:26.965Z,17.10
2019-01-05T03:41:11.561Z,17.10
2019-01-05T03:43:51.727Z,17.00
2019-01-05T03:46:25.866Z,17.10
2019-01-05T03:48:53.711Z,17.10
2019-01-05T03:51:27.687Z,17.10
2019-01-05T03:54:04.679Z,17.10
2019-01-05T03:56:38.751Z,17.10
2019-01-05T03:59:09.568Z,17.10
2019-01-05T04:01:54.027Z,17.10
2019-01-05T04:04:24.904Z,17.10
2019-01-05T04:06:52.773Z,17.20
2019-01-05T04:09:23.638Z,17.20
2019-01-05T04:11:51.505Z,17.20
2019-01-05T04:14:22.171Z,17.20
2019-01-05T04:16:58.959Z,17.10
2019-01-05T04:19:35.825Z,17.20
2019-01-05T04:22:06.248Z,17.20
2019-01-05T04:24:51.049Z,17.10
2019-01-05T04:27:18.888Z,17.10
2019-01-05T04:30:03.849Z,17.10
2019-01-05T04:32:40.851Z,17.10
2019-01-05T04:35:11.472Z,17.20
2019-01-05T04:37:39.333Z,17.20
2019-01-05T04:40:07.190Z,17.20
2019-01-05T04:42:44.167Z,17.10
2019-01-05T04:45:28.992Z,17.10
2019-01-05T04:48:13.701Z,17.10
2019-01-05T04:50:41.569Z,17.10
2019-01-05T04:53:18.646Z,17.10
2019-01-05T04:55:46.601Z,17.10
2019-01-05T04:58:17.492Z,17.10
2019-01-05T05:01:02.013Z,17.10
2019-01-05T05:03:42.195Z,17.00
2019-01-05T05:06:13.721Z,17.00
2019-01-05T05:08:50.569Z,17.00
2019-01-05T05:11:18.434Z,17.00
2019-01-05T05:13:46.437Z,17.10
2019-01-05T05:16:30.489Z,17.10
2019-01-05T05:18:58.385Z,17.00
2019-01-05T05:21:29.019Z,17.00
2019-01-05T05:24:12.203Z,17.00
2019-01-05T05:26:56.972Z,17.10
2019-01-05T05:29:27.717Z,17.10
2019-01-05T05:32:07.558Z,17.10
2019-01-05T05:34:53.773Z,17.10
2019-01-05T05:37:21.617Z,17.10
2019-01-05T05:39:49.513Z,17.10
2019-01-05T05:42:29.588Z,17.20
2019-01-05T05:45:03.510Z,17.20
2019-01-05T05:47:46.743Z,17.20
2019-01-05T05:50:31.458Z,17.20
2019-01-05T05:52:59.399Z,17.20
2019-01-05T05:55:43.950Z,17.20
2019-01-05T05:58:11.807Z,17.20
2019-01-05T06:00:55.041Z,17.10
2019-01-05T06:03:22.902Z,17.10
2019-01-05T06:05:53.503Z,17.10
2019-01-05T06:08:24.157Z,17.10
2019-01-05T06:10:54.919Z,17.10
2019-01-05T06:13:25.560Z,17.10
2019-01-05T06:15:53.423Z,17.10
2019-01-05T06:18:24.049Z,17.10
2019-01-05T06:21:08.861Z,17.10
2019-01-05T06:23:36.803Z,17.10
2019-01-05T06:26:10.440Z,17.10
2019-01-05T06:28:44.356Z,17.10
2019-01-05T06:31:15.304Z,17.10
2019-01-05T06:34:01.636Z,17.10
2019-01-05T06:36:29.690Z,17.10
2019-01-05T06:38:57.568Z,17.10
2019-01-05T06:41:34.508Z,17.00
2019-01-05T06:44:02.368Z,17.00
2019-01-05T06:46:37.212Z,17.00
2019-01-05T06:49:07.877Z,17.00
2019-01-05T06:51:35.808Z,17.00
2019-01-05T06:54:06.631Z,17.00
2019-01-05T06:56:43.797Z,17.00
2019-01-05T06:59:14.688Z,17.00
2019-01-05T07:01:59.226Z,17.00
2019-01-05T07:04:33.335Z,17.00
2019-01-05T07:07:18.057Z,17.00
2019-01-05T07:09:58.085Z,17.00
2019-01-05T07:12:25.929Z,17.10
2019-01-05T07:14:53.776Z,17.10
2019-01-05T07:17:21.636Z,17.20
2019-01-05T07:19:49.522Z,17.20
2019-01-05T07:22:20.478Z,17.20
2019-01-05T07:25:05.410Z,17.20
2019-01-05T07:27:36.283Z,17.20
2019-01-05T07:30:16.040Z,17.20
2019-01-05T07:33:00.806Z,17.20
2019-01-05T07:35:45.814Z,17.20
2019-01-05T07:38:19.746Z,17.20
2019-01-05T07:40:47.598Z,17.20
2019-01-05T07:43:18.588Z,17.10
2019-01-05T07:46:03.293Z,17.20
2019-01-05T07:48:43.486Z,17.10
2019-01-05T07:51:11.323Z,17.10
2019-01-05T07:53:48.542Z,17.10
2019-01-05T07:56:22.714Z,17.10
2019-01-05T07:58:56.736Z,17.10
2019-01-05T08:01:27.599Z,17.20
2019-01-05T08:04:01.562Z,17.20
2019-01-05T08:06:46.546Z,17.20
2019-01-05T08:09:20.437Z,17.20
2019-01-05T08:11:57.480Z,17.20
2019-01-05T08:14:43.521Z,17.10
2019-01-05T08:17:23.562Z,17.20
2019-01-05T08:20:08.409Z,17.10
2019-01-05T08:22:42.417Z,17.10
2019-01-05T08:25:13.063Z,17.10
2019-01-05T08:27:57.536Z,17.10
2019-01-05T08:30:42.588Z,17.10
2019-01-05T08:33:27.228Z,17.10
2019-01-05T08:35:55.090Z,17.10
2019-01-05T08:38:32.018Z,17.10
2019-01-05T08:40:59.888Z,17.10
2019-01-05T08:43:46.363Z,17.10
2019-01-05T08:46:16.986Z,17.10
2019-01-05T08:48:44.839Z,17.10
2019-01-05T08:51:15.509Z,17.10
2019-01-05T08:54:00.104Z,17.10
2019-01-05T08:56:45.077Z,17.10
2019-01-05T08:59:18.975Z,17.70
2019-01-05T09:01:46.832Z,17.10
2019-01-05T09:04:30.150Z,17.10
2019-01-05T09:07:01.123Z,17.30
2019-01-05T09:09:45.857Z,17.20
2019-01-05T09:12:32.159Z,17.20
2019-01-05T09:15:06.123Z,17.20
2019-01-05T09:17:37.253Z,17.20
2019-01-05T09:20:07.887Z,17.20
2019-01-05T09:22:52.385Z,17.20
2019-01-05T09:25:23.405Z,17.20
2019-01-05T09:28:03.613Z,17.10
2019-01-05T09:30:48.341Z,17.10
2019-01-05T09:33:33.104Z,17.10
2019-01-05T09:36:00.947Z,17.10
2019-01-05T09:38:45.700Z,17.10
2019-01-05T09:41:28.923Z,17.10
2019-01-05T09:43:56.815Z,17.20
2019-01-05T09:46:41.495Z,17.20
2019-01-05T09:49:24.655Z,16.50
2019-01-05T09:52:01.767Z,17.10
2019-01-05T09:54:35.877Z,17.10
2019-01-05T09:57:20.659Z,17.10
2019-01-05T09:59:54.581Z,17.10
2019-01-05T10:02:39.103Z,17.10
2019-01-05T10:05:16.276Z,17.10
2019-01-05T10:08:00.911Z,17.10
2019-01-05T10:10:28.786Z,17.10
2019-01-05T10:12:56.645Z,17.10
2019-01-05T10:15:36.710Z,17.10
2019-01-05T10:18:13.739Z,17.10
2019-01-05T10:20:58.134Z,17.10
2019-01-05T10:23:43.121Z,17.20
2019-01-05T10:26:29.465Z,16.70
2019-01-05T10:29:14.333Z,17.10
2019-01-05T10:31:48.244Z,17.10
2019-01-05T10:34:28.267Z,17.20
2019-01-05T10:37:13.202Z,17.10
2019-01-05T10:39:56.325Z,17.20
2019-01-05T10:42:24.211Z,17.20
2019-01-05T10:45:00.926Z,17.20
2019-01-05T10:47:31.637Z,17.20
2019-01-05T10:50:18.127Z,17.20
2019-01-05T10:53:02.653Z,17.20
2019-01-05T10:55:33.578Z,17.10
2019-01-05T10:58:18.363Z,17.10
2019-01-05T11:01:04.663Z,17.10
2019-01-05T11:03:49.711Z,17.10
2019-01-05T11:06:20.568Z,17.10
2019-01-05T11:09:05.111Z,17.20
2019-01-05T11:11:49.839Z,17.20
2019-01-05T11:14:26.823Z,17.20
2019-01-05T11:16:57.460Z,17.20
2019-01-05T11:19:25.309Z,17.20
2019-01-05T11:21:53.188Z,17.10
2019-01-05T11:24:21.035Z,17.10
2019-01-05T11:26:49.763Z,17.10
2019-01-05T11:29:17.741Z,17.10
2019-01-05T11:31:45.663Z,17.10
2019-01-05T11:34:23.034Z,17.10
2019-01-05T11:37:06.057Z,17.10
2019-01-05T11:39:34.043Z,17.10
2019-01-05T11:42:11.007Z,17.10
2019-01-05T11:44:44.819Z,17.10
2019-01-05T11:47:31.103Z,17.10
2019-01-05T11:49:59.059Z,17.10
2019-01-05T11:52:26.951Z,17.10
2019-01-05T11:55:11.680Z,17.10
2019-01-05T11:57:42.615Z,17.10
2019-01-05T12:00:22.880Z,17.10
2019-01-05T12:03:11.832Z,17.10
2019-01-05T12:05:56.695Z,17.10
2019-01-05T12:08:41.322Z,17.10
2019-01-05T12:11:12.237Z,17.10
2019-01-05T12:13:42.936Z,17.10
2019-01-05T12:16:14.052Z,17.10
2019-01-05T12:18:47.939Z,17.10
2019-01-05T12:21:21.952Z,17.10
2019-01-05T12:24:05.138Z,17.10
2019-01-05T12:26:36.018Z,17.10
2019-01-05T12:29:09.699Z,17.10
2019-01-05T12:31:37.565Z,17.10
2019-01-05T12:34:21.985Z,17.10
2019-01-05T12:36:58.970Z,17.10
2019-01-05T12:39:26.834Z,17.10
2019-01-05T12:42:10.140Z,17.10
2019-01-05T12:44:38.012Z,17.10
2019-01-05T12:47:12.023Z,17.10
2019-01-05T12:49:51.888Z,17.10
2019-01-05T12:52:19.776Z,17.10
2019-01-05T12:54:53.490Z,17.10
2019-01-05T12:57:30.478Z,17.10
2019-01-05T12:59:58.350Z,17.10
2019-01-05T13:02:43.047Z,17.10
2019-01-05T13:05:27.776Z,17.10
2019-01-05T13:07:58.698Z,17.10
2019-01-05T13:10:35.380Z,17.10
2019-01-05T13:13:09.385Z,17.10
2019-01-05T13:15:55.304Z,17.10
2019-01-05T13:18:23.202Z,17.10
2019-01-05T13:21:08.067Z,17.10
2019-01-05T13:23:51.316Z,17.10
2019-01-05T13:26:28.270Z,17.10
2019-01-05T13:29:01.960Z,17.10
2019-01-05T13:31:46.521Z,17.10
2019-01-05T13:34:31.232Z,17.10
2019-01-05T13:37:15.947Z,17.10
2019-01-05T13:39:53.131Z,17.10
2019-01-05T13:42:30.319Z,17.10
2019-01-05T13:45:04.625Z,17.10
2019-01-05T13:47:50.911Z,17.10
2019-01-05T13:50:30.863Z,17.10
2019-01-05T13:53:01.755Z,17.30
2019-01-05T13:55:35.474Z,17.10
2019-01-05T13:58:21.564Z,17.10
2019-01-05T14:00:55.732Z,17.10
2019-01-05T14:03:26.439Z,17.10
2019-01-05T14:05:57.169Z,17.10
2019-01-05T14:08:25.049Z,17.10
2019-01-05T14:11:05.007Z,17.10
2019-01-05T14:13:49.741Z,17.10
2019-01-05T14:16:23.705Z,17.10
2019-01-05T14:18:57.479Z,17.10
2019-01-05T14:21:28.390Z,17.10
2019-01-05T14:23:56.307Z,17.10
2019-01-05T14:26:30.479Z,17.10
2019-01-05T14:28:58.350Z,17.10
2019-01-05T14:31:38.509Z,17.00
2019-01-05T14:34:06.350Z,17.00
2019-01-05T14:36:46.951Z,17.00
2019-01-05T14:39:31.773Z,17.00
2019-01-05T14:42:17.732Z,17.00
2019-01-05T14:44:57.681Z,17.40
2019-01-05T14:47:34.614Z,17.00
2019-01-05T14:50:14.613Z,17.00
2019-01-05T14:52:45.617Z,17.00
2019-01-05T14:55:13.460Z,17.00
2019-01-05T14:57:41.337Z,17.00
2019-01-05T15:00:09.187Z,17.00
2019-01-05T15:02:48.903Z,17.00
2019-01-05T15:05:20.908Z,17.00
2019-01-05T15:08:00.791Z,17.00
2019-01-05T15:10:43.881Z,17.00
2019-01-05T15:13:26.637Z,17.10
2019-01-05T15:15:54.514Z,17.10
2019-01-05T15:18:25.478Z,17.10
2019-01-05T15:20:53.351Z,17.20
2019-01-05T15:23:23.990Z,17.30
2019-01-05T15:26:08.552Z,17.40
2019-01-05T15:28:39.455Z,17.50
2019-01-05T15:31:25.734Z,17.60
2019-01-05T15:34:08.717Z,17.70
2019-01-05T15:36:42.807Z,17.70
2019-01-05T15:39:23.012Z,17.70
2019-01-05T15:42:07.818Z,17.70
2019-01-05T15:44:38.682Z,17.70
2019-01-05T15:47:23.362Z,17.70
2019-01-05T15:49:51.242Z,17.80
2019-01-05T15:52:36.262Z,17.80
2019-01-05T15:55:22.556Z,17.90
2019-01-05T15:58:07.132Z,18.00
2019-01-05T16:00:34.998Z,18.10
2019-01-05T16:03:21.085Z,18.20
2019-01-05T16:05:58.290Z,18.20
2019-01-05T16:08:42.814Z,18.30
2019-01-05T16:11:25.849Z,18.30
2019-01-05T16:13:53.717Z,18.30
2019-01-05T16:16:25.068Z,18.40
2019-01-05T16:19:09.838Z,18.40
2019-01-05T16:21:43.768Z,18.40
2019-01-05T16:24:11.612Z,18.50
2019-01-05T16:26:39.524Z,18.50
2019-01-05T16:29:10.532Z,18.50
2019-01-05T16:31:53.659Z,18.60
2019-01-05T16:34:33.724Z,18.60
2019-01-05T16:37:19.976Z,18.60
2019-01-05T16:39:53.668Z,18.70
2019-01-05T16:42:21.529Z,18.80
2019-01-05T16:44:58.763Z,18.80
2019-01-05T16:47:29.772Z,18.80
2019-01-05T16:50:12.956Z,18.90
2019-01-05T16:52:53.122Z,18.90
2019-01-05T16:55:24.200Z,18.90
2019-01-05T16:58:10.441Z,18.90
2019-01-05T17:00:54.895Z,19.00
2019-01-05T17:03:39.772Z,19.10
2019-01-05T17:06:17.267Z,19.00
2019-01-05T17:08:45.116Z,19.00
2019-01-05T17:11:22.104Z,18.90
2019-01-05T17:14:04.877Z,18.90
2019-01-05T17:16:35.836Z,18.80
2019-01-05T17:19:06.554Z,17.80
2019-01-05T17:21:43.807Z,18.90
2019-01-05T17:24:23.848Z,18.90
2019-01-05T17:26:51.784Z,19.00
2019-01-05T17:29:22.786Z,19.00
2019-01-05T17:31:50.684Z,19.10
2019-01-05T17:34:21.441Z,19.10
2019-01-05T17:37:04.389Z,19.10
2019-01-05T17:39:35.039Z,19.20
2019-01-05T17:42:19.829Z,19.20
2019-01-05T17:44:54.009Z,19.20
2019-01-05T17:47:24.737Z,19.20
2019-01-05T17:50:07.936Z,19.20
2019-01-05T17:52:47.995Z,19.20
2019-01-05T17:55:18.682Z,19.30
2019-01-05T17:57:46.560Z,19.30
2019-01-05T18:00:26.578Z,19.30
2019-01-05T18:03:09.729Z,19.30
2019-01-05T18:05:54.783Z,19.30
2019-01-05T18:08:31.909Z,19.40
2019-01-05T18:10:59.765Z,19.40
2019-01-05T18:13:45.928Z,19.40
2019-01-05T18:16:13.793Z,19.40
2019-01-05T18:18:59.835Z,19.40
2019-01-05T18:21:37.136Z,19.50
2019-01-05T18:24:17.346Z,19.50
2019-01-05T18:26:48.199Z,19.50
2019-01-05T18:29:18.966Z,19.50
2019-01-05T18:32:05.311Z,19.50
2019-01-05T18:34:33.290Z,19.60
2019-01-05T18:37:04.317Z,19.60
2019-01-05T18:39:38.126Z,19.60
2019-01-05T18:42:06.070Z,19.50
2019-01-05T18:44:50.583Z,19.50
2019-01-05T18:47:21.759Z,19.40
2019-01-05T18:50:06.499Z,19.40
2019-01-05T18:52:34.450Z,19.40
2019-01-05T18:55:11.443Z,19.40
2019-01-05T18:57:39.428Z,19.40
2019-01-05T19:00:10.209Z,19.50
2019-01-05T19:02:56.416Z,19.50
2019-01-05T19:05:41.333Z,19.60
2019-01-05T19:08:12.148Z,19.60
2019-01-05T19:10:56.653Z,19.60
2019-01-05T19:13:27.648Z,19.60
2019-01-05T19:16:00.190Z,19.60
2019-01-05T19:18:30.941Z,19.70
2019-01-05T19:21:07.690Z,19.70
2019-01-05T19:23:41.757Z,19.70
2019-01-05T19:26:12.411Z,19.70
2019-01-05T19:28:57.408Z,19.80
2019-01-05T19:31:31.356Z,19.80
2019-01-05T19:34:02.096Z,19.80
2019-01-05T19:36:36.949Z,19.80
2019-01-05T19:39:21.841Z,19.80
2019-01-05T19:42:06.537Z,19.80
2019-01-05T19:44:37.716Z,19.90
2019-01-05T19:47:05.574Z,19.90
2019-01-05T19:49:42.749Z,19.90
2019-01-05T19:52:19.777Z,20.00
2019-01-05T19:54:59.508Z,20.00
2019-01-05T19:57:44.296Z,20.00
2019-01-05T20:00:24.523Z,20.00
2019-01-05T20:02:52.404Z,20.10
2019-01-05T20:05:38.460Z,20.10
2019-01-05T20:08:18.403Z,20.10
2019-01-05T20:10:52.068Z,20.10
2019-01-05T20:13:36.876Z,20.00
2019-01-05T20:16:20.904Z,19.90
2019-01-05T20:18:54.618Z,19.90
2019-01-05T20:21:37.827Z,19.80
2019-01-05T20:24:08.714Z,19.80
2019-01-05T20:26:45.805Z,19.90
2019-01-05T20:29:16.626Z,19.30
2019-01-05T20:32:01.434Z,20.00
2019-01-05T20:34:32.266Z,20.00
2019-01-05T20:37:17.139Z,20.10
2019-01-05T20:39:48.008Z,20.10
2019-01-05T20:42:32.559Z,20.10
2019-01-05T20:45:03.508Z,20.10
2019-01-05T20:47:34.127Z,20.10
2019-01-05T20:50:02.415Z,20.10
2019-01-05T20:52:47.314Z,20.10
2019-01-05T20:55:32.101Z,20.10
2019-01-05T20:58:17.130Z,20.10
2019-01-05T21:00:51.330Z,20.20
2019-01-05T21:03:25.095Z,20.20
2019-01-05T21:05:53.064Z,20.20
2019-01-05T21:08:21.023Z,20.30
2019-01-05T21:10:57.814Z,20.30
2019-01-05T21:13:31.890Z,20.30
2019-01-05T21:16:09.554Z,20.30
2019-01-05T21:18:37.418Z,20.30
2019-01-05T21:21:05.297Z,20.30
2019-01-05T21:23:36.460Z,20.40
2019-01-05T21:26:24.645Z,20.30
2019-01-05T21:28:51.065Z,20.40
2019-01-05T21:31:21.737Z,20.40
2019-01-05T21:33:52.603Z,20.40
2019-01-05T21:36:26.611Z,20.40
2019-01-05T21:39:11.292Z,20.30
2019-01-05T21:41:39.186Z,20.20
2019-01-05T21:44:23.908Z,20.20
2019-01-05T21:47:01.097Z,20.10
2019-01-05T21:49:44.109Z,20.20
2019-01-05T21:52:26.972Z,20.20
2019-01-05T21:54:54.846Z,20.30
2019-01-05T21:57:37.861Z,20.40
2019-01-05T22:00:22.660Z,20.40
2019-01-05T22:02:50.512Z,20.50
2019-01-05T22:05:21.393Z,20.60
2019-01-05T22:07:52.464Z,20.60
2019-01-05T22:10:26.488Z,20.60
2019-01-05T22:13:06.694Z,20.70
2019-01-05T22:15:51.263Z,20.70
2019-01-05T22:18:36.072Z,20.70
2019-01-05T22:21:13.865Z,20.80
2019-01-05T22:24:00.184Z,20.80
2019-01-05T22:26:46.429Z,20.90
2019-01-05T22:29:20.165Z,20.90
2019-01-05T22:32:05.013Z,20.90
2019-01-05T22:34:49.559Z,21.00
2019-01-05T22:37:20.318Z,21.00
2019-01-05T22:39:48.193Z,21.00
2019-01-05T22:42:22.100Z,20.90
2019-01-05T22:45:08.293Z,20.80
2019-01-05T22:47:36.144Z,20.70
2019-01-05T22:50:20.766Z,20.60
2019-01-05T22:52:48.752Z,20.60
2019-01-05T22:55:35.063Z,20.50
2019-01-05T22:58:02.899Z,20.50
2019-01-05T23:00:46.131Z,20.50
2019-01-05T23:03:13.988Z,20.50
2019-01-05T23:05:41.967Z,20.50
2019-01-05T23:08:12.676Z,20.50
2019-01-05T23:10:49.573Z,20.50
2019-01-05T23:13:23.281Z,20.50
2019-01-05T23:16:00.504Z,20.60
2019-01-05T23:18:43.737Z,20.60
2019-01-05T23:21:11.609Z,20.60
2019-01-05T23:23:45.389Z,20.60
2019-01-05T23:26:28.437Z,20.60
2019-01-05T23:29:02.126Z,20.60
2019-01-05T23:31:38.858Z,20.60
2019-01-05T23:34:06.809Z,20.60
2019-01-05T23:36:51.568Z,20.60
2019-01-05T23:39:19.405Z,20.60
2019-01-05T23:41:59.703Z,20.60
2019-01-05T23:44:44.289Z,20.60
2019-01-05T23:47:12.141Z,20.60
2019-01-05T23:49:58.109Z,20.60
2019-01-05T23:52:28.892Z,20.60
2019-01-05T23:55:05.654Z,20.60
2019-01-05T23:57:42.468Z,20.60
